createdAt,value
2022-08-15T00:00:09.146Z,957.42
2022-08-15T00:01:08.265Z,957.43
2022-08-15T00:02:34.172Z,957.42
2022-08-15T00:03:10.411Z,957.39
2022-08-15T00:04:10.618Z,957.41
2022-08-15T00:05:08.031Z,957.42
2022-08-15T00:06:39.140Z,957.44
2022-08-15T00:07:07.979Z,957.38
2022-08-15T00:08:50.865Z,957.38
2022-08-15T00:09:07.867Z,957.42
2022-08-15T00:10:11.140Z,957.41
2022-08-15T00:11:19.659Z,957.39
2022-08-15T00:12:07.746Z,957.44
2022-08-15T00:13:14.569Z,957.41
2022-08-15T00:14:18.760Z,957.49
2022-08-15T00:15:09.044Z,957.43
2022-08-15T00:16:07.588Z,957.44
2022-08-15T00:17:09.982Z,957.47
2022-08-15T00:18:07.504Z,957.40
2022-08-15T00:19:07.580Z,957.43
2022-08-15T00:20:07.430Z,957.45
2022-08-15T00:21:10.265Z,957.46
2022-08-15T00:22:18.266Z,957.46
2022-08-15T00:23:07.298Z,957.46
2022-08-15T00:24:20.756Z,957.46
2022-08-15T00:25:07.237Z,957.47
2022-08-15T00:26:23.648Z,957.44
2022-08-15T00:27:09.980Z,957.47
2022-08-15T00:28:07.098Z,957.47
2022-08-15T00:29:07.501Z,957.47
2022-08-15T00:30:07.013Z,957.46
2022-08-15T00:31:07.008Z,957.43
2022-08-15T00:33:03.210Z,957.39
2022-08-15T00:33:20.787Z,957.39
2022-08-15T00:34:39.276Z,957.39
2022-08-15T00:35:08.824Z,957.36
2022-08-15T00:36:53.029Z,957.35
2022-08-15T00:37:08.624Z,957.36
2022-08-15T00:38:12.415Z,957.39
2022-08-15T00:39:06.652Z,957.37
2022-08-15T00:40:18.390Z,957.36
2022-08-15T00:41:06.568Z,957.41
2022-08-15T00:42:06.554Z,957.43
2022-08-15T00:43:06.490Z,957.45
2022-08-15T00:44:06.941Z,957.45
2022-08-15T00:45:07.893Z,957.45
2022-08-15T00:46:13.753Z,957.46
2022-08-15T00:47:06.324Z,957.44
2022-08-15T00:48:06.291Z,957.46
2022-08-15T00:49:12.094Z,957.49
2022-08-15T00:50:06.198Z,957.45
2022-08-15T00:51:06.161Z,957.42
2022-08-15T00:52:27.011Z,957.39
2022-08-15T00:53:06.094Z,957.44
2022-08-15T00:54:06.036Z,957.45
2022-08-15T00:55:05.995Z,957.50
2022-08-15T00:56:05.952Z,957.52
2022-08-15T00:57:10.396Z,957.56
2022-08-15T00:58:05.872Z,957.52
2022-08-15T00:59:06.166Z,957.52
2022-08-15T01:00:08.520Z,957.47
2022-08-15T01:01:05.795Z,957.48
2022-08-15T01:02:22.797Z,957.50
2022-08-15T01:03:05.672Z,957.52
2022-08-15T01:04:05.638Z,957.57
2022-08-15T01:05:05.590Z,957.58
2022-08-15T01:06:05.548Z,957.57
2022-08-15T01:07:05.509Z,957.56
2022-08-15T01:08:05.780Z,957.56
2022-08-15T01:09:11.745Z,957.59
2022-08-15T01:10:05.382Z,957.57
2022-08-15T01:11:05.827Z,957.53
2022-08-15T01:12:05.306Z,957.51
2022-08-15T01:13:18.646Z,957.46
2022-08-15T01:14:55.743Z,957.52
2022-08-15T01:15:05.187Z,957.46
2022-08-15T01:16:05.147Z,957.41
2022-08-15T01:17:05.100Z,957.43
2022-08-15T01:18:22.933Z,957.41
2022-08-15T01:19:05.017Z,957.36
2022-08-15T01:20:04.977Z,957.41
2022-08-15T01:21:04.937Z,957.41
2022-08-15T01:22:05.382Z,957.48
2022-08-15T01:23:05.504Z,957.47
2022-08-15T01:24:04.823Z,957.46
2022-08-15T01:25:25.980Z,957.50
2022-08-15T01:26:38.840Z,957.52
2022-08-15T01:27:04.960Z,957.55
2022-08-15T01:28:04.650Z,957.55
2022-08-15T01:29:05.111Z,957.55
2022-08-15T01:30:04.570Z,957.53
2022-08-15T01:31:04.664Z,957.51
2022-08-15T01:32:04.485Z,957.55
2022-08-15T01:33:04.448Z,957.53
2022-08-15T01:34:13.238Z,957.56
2022-08-15T01:35:04.364Z,957.52
2022-08-15T01:36:04.346Z,957.53
2022-08-15T01:37:04.286Z,957.49
2022-08-15T01:38:05.854Z,957.48
2022-08-15T01:39:05.899Z,957.47
2022-08-15T01:40:04.276Z,957.46
2022-08-15T01:41:04.172Z,957.45
2022-08-15T01:42:04.087Z,957.50
2022-08-15T01:43:04.037Z,957.53
2022-08-15T01:44:24.988Z,957.54
2022-08-15T01:45:03.958Z,957.51
2022-08-15T01:46:03.915Z,957.48
2022-08-15T01:47:03.898Z,957.50
2022-08-15T01:48:20.313Z,957.53
2022-08-15T01:49:04.249Z,957.53
2022-08-15T01:50:03.753Z,957.53
2022-08-15T01:51:03.711Z,957.53
2022-08-15T01:52:58.013Z,957.55
2022-08-15T01:53:16.546Z,957.52
2022-08-15T01:54:03.586Z,957.55
2022-08-15T01:55:06.512Z,957.59
2022-08-15T01:56:32.627Z,957.60
2022-08-15T01:57:03.461Z,957.58
2022-08-15T01:58:03.420Z,957.57
2022-08-15T01:59:03.407Z,957.53
2022-08-15T02:00:03.339Z,957.50
2022-08-15T02:01:03.351Z,957.50
2022-08-15T02:02:03.331Z,957.47
2022-08-15T02:03:03.288Z,957.51
2022-08-15T02:04:03.176Z,957.52
2022-08-15T02:05:03.213Z,957.47
2022-08-15T02:06:03.095Z,957.49
2022-08-15T02:07:03.066Z,957.52
2022-08-15T02:08:32.325Z,957.46
2022-08-15T02:09:02.969Z,957.47
2022-08-15T02:10:20.971Z,957.47
2022-08-15T02:11:02.907Z,957.44
2022-08-15T02:12:04.214Z,957.41
2022-08-15T02:13:12.467Z,957.41
2022-08-15T02:14:02.763Z,957.43
2022-08-15T02:15:02.727Z,957.45
2022-08-15T02:16:02.684Z,957.45
2022-08-15T02:17:02.657Z,957.48
2022-08-15T02:18:04.877Z,957.45
2022-08-15T02:19:02.564Z,957.44
2022-08-15T02:20:23.839Z,957.46
2022-08-15T02:21:02.482Z,957.42
2022-08-15T02:22:02.447Z,957.41
2022-08-15T02:23:02.398Z,957.43
2022-08-15T02:24:02.362Z,957.43
2022-08-15T02:25:02.315Z,957.42
2022-08-15T02:26:02.271Z,957.43
2022-08-15T02:27:02.250Z,957.47
2022-08-15T02:28:02.186Z,957.49
2022-08-15T02:29:05.053Z,957.48
2022-08-15T02:30:02.108Z,957.54
2022-08-15T02:31:02.071Z,957.57
2022-08-15T02:32:02.056Z,957.58
2022-08-15T02:33:01.987Z,957.57
2022-08-15T02:34:01.944Z,957.57
2022-08-15T02:35:02.894Z,957.56
2022-08-15T02:36:01.861Z,957.59
2022-08-15T02:37:09.175Z,957.53
2022-08-15T02:38:01.792Z,957.49
2022-08-15T02:39:02.237Z,957.44
2022-08-15T02:40:37.758Z,957.41
2022-08-15T02:41:01.660Z,957.34
2022-08-15T02:42:01.613Z,957.28
2022-08-15T02:43:01.576Z,957.26
2022-08-15T02:44:01.536Z,957.23
2022-08-15T02:45:03.012Z,957.19
2022-08-15T02:46:28.000Z,957.18
2022-08-15T02:47:03.225Z,957.18
2022-08-15T02:48:01.368Z,957.13
2022-08-15T02:49:01.323Z,957.08
2022-08-15T02:50:01.289Z,957.04
2022-08-15T02:51:01.270Z,957.04
2022-08-15T02:52:03.685Z,957.02
2022-08-15T02:53:01.165Z,957.01
2022-08-15T02:54:36.114Z,957.03
2022-08-15T02:55:02.633Z,957.04
2022-08-15T02:56:01.036Z,957.05
2022-08-15T02:57:01.011Z,957.09
2022-08-15T02:58:05.646Z,957.08
2022-08-15T02:59:00.914Z,957.06
2022-08-15T03:00:18.518Z,957.00
2022-08-15T03:01:07.721Z,957.01
2022-08-15T03:02:00.848Z,956.98
2022-08-15T03:03:00.745Z,956.98
2022-08-15T03:04:00.704Z,956.97
2022-08-15T03:05:00.675Z,956.95
2022-08-15T03:06:00.622Z,956.94
2022-08-15T03:07:00.684Z,956.91
2022-08-15T03:08:00.922Z,956.88
2022-08-15T03:09:00.498Z,956.88
2022-08-15T03:10:00.515Z,956.88
2022-08-15T03:11:00.417Z,956.93
2022-08-15T03:12:00.372Z,956.98
2022-08-15T03:13:01.289Z,957.00
2022-08-15T03:14:00.402Z,957.01
2022-08-15T03:15:01.470Z,957.12
2022-08-15T03:16:00.220Z,957.12
2022-08-15T03:17:00.166Z,957.20
2022-08-15T03:18:00.133Z,957.20
2022-08-15T03:19:00.114Z,957.27
2022-08-15T03:20:00.046Z,957.28
2022-08-15T03:21:00.008Z,957.29
2022-08-15T03:21:59.966Z,957.32
2022-08-15T03:22:59.945Z,957.27
2022-08-15T03:23:59.876Z,957.23
2022-08-15T03:24:59.864Z,957.24
2022-08-15T03:25:59.794Z,957.20
2022-08-15T03:26:59.754Z,957.19
2022-08-15T03:27:59.711Z,957.20
2022-08-15T03:29:01.753Z,957.18
2022-08-15T03:29:59.629Z,957.15
2022-08-15T03:30:59.598Z,957.12
2022-08-15T03:31:59.575Z,957.14
2022-08-15T03:32:59.509Z,957.17
2022-08-15T03:33:59.463Z,957.19
2022-08-15T03:34:59.420Z,957.25
2022-08-15T03:35:59.380Z,957.31
2022-08-15T03:37:01.467Z,957.29
2022-08-15T03:38:05.488Z,957.28
2022-08-15T03:38:59.779Z,957.30
2022-08-15T03:39:59.302Z,957.30
2022-08-15T03:40:59.169Z,957.31
2022-08-15T03:41:59.136Z,957.33
2022-08-15T03:43:02.440Z,957.32
2022-08-15T03:43:59.049Z,957.35
2022-08-15T03:44:59.008Z,957.31
2022-08-15T03:45:59.064Z,957.32
2022-08-15T03:46:58.920Z,957.28
2022-08-15T03:47:58.890Z,957.29
2022-08-15T03:49:00.721Z,957.30
2022-08-15T03:50:24.236Z,957.29
2022-08-15T03:50:59.526Z,957.31
2022-08-15T03:51:58.722Z,957.32
2022-08-15T03:52:58.675Z,957.30
2022-08-15T03:53:58.634Z,957.31
2022-08-15T03:54:58.615Z,957.31
2022-08-15T03:55:59.387Z,957.26
2022-08-15T03:56:58.525Z,957.29
2022-08-15T03:58:03.603Z,957.31
2022-08-15T03:58:58.444Z,957.37
2022-08-15T03:59:58.388Z,957.37
2022-08-15T04:00:59.068Z,957.40
2022-08-15T04:02:00.714Z,957.43
2022-08-15T04:02:58.262Z,957.41
2022-08-15T04:03:58.227Z,957.42
2022-08-15T04:04:59.200Z,957.38
2022-08-15T04:05:58.141Z,957.33
2022-08-15T04:07:00.176Z,957.37
2022-08-15T04:07:58.053Z,957.36
2022-08-15T04:09:13.277Z,957.38
2022-08-15T04:09:57.980Z,957.38
2022-08-15T04:10:57.928Z,957.37
2022-08-15T04:11:57.892Z,957.41
2022-08-15T04:12:59.583Z,957.41
2022-08-15T04:13:57.805Z,957.40
2022-08-15T04:14:57.787Z,957.43
2022-08-15T04:16:06.428Z,957.47
2022-08-15T04:17:02.881Z,957.46
2022-08-15T04:18:00.521Z,957.49
2022-08-15T04:18:59.632Z,957.47
2022-08-15T04:19:57.559Z,957.47
2022-08-15T04:20:57.554Z,957.44
2022-08-15T04:21:57.475Z,957.51
2022-08-15T04:22:57.549Z,957.51
2022-08-15T04:23:57.393Z,957.52
2022-08-15T04:24:57.352Z,957.56
2022-08-15T04:25:57.311Z,957.54
2022-08-15T04:27:00.922Z,957.53
2022-08-15T04:27:57.223Z,957.56
2022-08-15T04:28:57.853Z,957.57
2022-08-15T04:29:58.632Z,957.57
2022-08-15T04:30:57.101Z,957.61
2022-08-15T04:31:57.062Z,957.60
2022-08-15T04:32:59.183Z,957.61
2022-08-15T04:34:44.744Z,957.61
2022-08-15T04:34:57.306Z,957.60
2022-08-15T04:35:56.893Z,957.62
2022-08-15T04:36:58.038Z,957.55
2022-08-15T04:37:56.814Z,957.58
2022-08-15T04:38:56.787Z,957.58
2022-08-15T04:39:56.759Z,957.54
2022-08-15T04:41:18.034Z,957.59
2022-08-15T04:41:56.644Z,957.55
2022-08-15T04:42:57.667Z,957.52
2022-08-15T04:43:56.562Z,957.50
2022-08-15T04:44:56.608Z,957.47
2022-08-15T04:45:57.090Z,957.50
2022-08-15T04:46:56.439Z,957.48
2022-08-15T04:47:56.399Z,957.51
2022-08-15T04:48:57.105Z,957.50
2022-08-15T04:49:56.312Z,957.53
2022-08-15T04:50:56.292Z,957.50
2022-08-15T04:51:56.235Z,957.50
2022-08-15T04:52:56.193Z,957.51
2022-08-15T04:53:56.154Z,957.55
2022-08-15T04:54:58.814Z,957.56
2022-08-15T04:56:00.887Z,957.52
2022-08-15T04:56:59.067Z,957.57
2022-08-15T04:57:55.990Z,957.58
2022-08-15T04:59:05.806Z,957.59
2022-08-15T05:00:05.079Z,957.63
2022-08-15T05:00:55.883Z,957.64
2022-08-15T05:02:04.363Z,957.65
2022-08-15T05:02:57.022Z,957.68
2022-08-15T05:03:58.439Z,957.68
2022-08-15T05:04:55.694Z,957.66
2022-08-15T05:05:56.564Z,957.65
2022-08-15T05:06:55.624Z,957.64
2022-08-15T05:07:58.759Z,957.65
2022-08-15T05:08:55.536Z,957.64
2022-08-15T05:10:00.002Z,957.65
2022-08-15T05:10:55.447Z,957.63
2022-08-15T05:12:01.661Z,957.63
2022-08-15T05:12:55.364Z,957.64
2022-08-15T05:13:55.326Z,957.68
2022-08-15T05:14:55.285Z,957.63
2022-08-15T05:15:55.245Z,957.70
2022-08-15T05:16:55.205Z,957.69
2022-08-15T05:17:58.075Z,957.70
2022-08-15T05:18:55.120Z,957.69
2022-08-15T05:19:55.080Z,957.75
2022-08-15T05:20:55.039Z,957.77
2022-08-15T05:21:55.000Z,957.76
2022-08-15T05:22:55.226Z,957.73
2022-08-15T05:23:54.931Z,957.72
2022-08-15T05:24:58.564Z,957.72
2022-08-15T05:25:54.832Z,957.77
2022-08-15T05:26:58.367Z,957.76
2022-08-15T05:27:54.838Z,957.77
2022-08-15T05:28:58.464Z,957.78
2022-08-15T05:29:54.667Z,957.77
2022-08-15T05:30:57.449Z,957.76
2022-08-15T05:31:54.591Z,957.72
2022-08-15T05:32:54.556Z,957.76
2022-08-15T05:33:56.278Z,957.74
2022-08-15T05:34:54.466Z,957.72
2022-08-15T05:35:54.422Z,957.68
2022-08-15T05:36:54.383Z,957.70
2022-08-15T05:37:54.372Z,957.72
2022-08-15T05:38:54.302Z,957.71
2022-08-15T05:39:54.345Z,957.68
2022-08-15T05:40:54.223Z,957.69
2022-08-15T05:41:54.176Z,957.73
2022-08-15T05:42:54.140Z,957.70
2022-08-15T05:43:55.178Z,957.72
2022-08-15T05:44:54.055Z,957.71
2022-08-15T05:45:54.017Z,957.71
2022-08-15T05:46:53.976Z,957.70
2022-08-15T05:47:53.973Z,957.65
2022-08-15T05:48:53.909Z,957.65
2022-08-15T05:49:56.766Z,957.64
2022-08-15T05:51:00.269Z,957.63
2022-08-15T05:51:54.218Z,957.61
2022-08-15T05:52:56.462Z,957.59
2022-08-15T05:53:54.281Z,957.58
2022-08-15T05:54:53.651Z,957.57
2022-08-15T05:55:53.608Z,957.55
2022-08-15T05:56:53.582Z,957.54
2022-08-15T05:57:53.891Z,957.54
2022-08-15T05:58:53.508Z,957.55
2022-08-15T05:59:53.445Z,957.53
2022-08-15T06:03:49.039Z,957.49
2022-08-15T06:04:47.096Z,957.46
2022-08-15T06:05:47.125Z,957.48
2022-08-15T06:06:46.986Z,957.45
2022-08-15T06:07:55.580Z,957.43
2022-08-15T06:08:49.645Z,957.46
2022-08-15T06:09:46.860Z,957.45
2022-08-15T06:10:51.152Z,957.43
2022-08-15T06:11:46.782Z,957.44
2022-08-15T06:12:46.799Z,957.47
2022-08-15T06:13:46.977Z,957.51
2022-08-15T06:14:46.654Z,957.46
2022-08-15T06:15:46.785Z,957.49
2022-08-15T06:16:48.057Z,957.52
2022-08-15T06:17:46.532Z,957.54
2022-08-15T06:18:46.487Z,957.52
2022-08-15T06:19:46.535Z,957.51
2022-08-15T06:20:52.243Z,957.55
2022-08-15T06:21:46.553Z,957.53
2022-08-15T06:22:46.536Z,957.54
2022-08-15T06:23:46.602Z,957.54
2022-08-15T06:24:46.362Z,957.54
2022-08-15T06:25:46.202Z,957.53
2022-08-15T06:26:46.175Z,957.53
2022-08-15T06:27:49.925Z,957.51
2022-08-15T06:28:52.878Z,957.52
2022-08-15T06:29:46.033Z,957.53
2022-08-15T06:30:46.206Z,957.53
2022-08-15T06:31:48.935Z,957.50
2022-08-15T06:32:46.078Z,957.49
2022-08-15T06:33:55.864Z,957.47
2022-08-15T06:34:54.334Z,957.47
2022-08-15T06:35:45.804Z,957.48
2022-08-15T06:36:45.839Z,957.50
2022-08-15T06:37:59.661Z,957.51
2022-08-15T06:38:45.671Z,957.49
2022-08-15T06:39:45.718Z,957.48
2022-08-15T06:40:45.879Z,957.52
2022-08-15T06:41:49.363Z,957.54
2022-08-15T06:42:48.704Z,957.53
2022-08-15T06:43:45.465Z,957.50
2022-08-15T06:44:45.485Z,957.50
2022-08-15T06:45:49.555Z,957.48
2022-08-15T06:46:51.728Z,957.47
2022-08-15T06:47:45.468Z,957.44
2022-08-15T06:48:59.108Z,957.47
2022-08-15T06:49:45.228Z,957.50
2022-08-15T06:50:45.187Z,957.50
2022-08-15T06:51:46.310Z,957.48
2022-08-15T06:52:45.233Z,957.48
2022-08-15T06:53:45.064Z,957.46
2022-08-15T06:54:45.351Z,957.48
2022-08-15T06:55:44.993Z,957.47
2022-08-15T06:56:44.946Z,957.46
2022-08-15T06:57:44.968Z,957.44
2022-08-15T06:58:56.140Z,957.44
2022-08-15T06:59:56.215Z,957.43
2022-08-15T07:00:51.232Z,957.43
2022-08-15T07:02:17.119Z,957.44
2022-08-15T07:02:44.742Z,957.46
2022-08-15T07:03:44.804Z,957.48
2022-08-15T07:04:44.624Z,957.44
2022-08-15T07:05:44.931Z,957.41
2022-08-15T07:06:46.443Z,957.38
2022-08-15T07:07:44.507Z,957.39
2022-08-15T07:08:44.477Z,957.38
2022-08-15T07:09:44.637Z,957.38
2022-08-15T07:10:49.438Z,957.38
2022-08-15T07:11:54.908Z,957.35
2022-08-15T07:12:49.446Z,957.34
2022-08-15T07:13:46.773Z,957.34
2022-08-15T07:14:44.224Z,957.34
2022-08-15T07:15:45.294Z,957.33
2022-08-15T07:16:44.145Z,957.34
2022-08-15T07:17:44.838Z,957.36
2022-08-15T07:18:44.169Z,957.37
2022-08-15T07:19:55.435Z,957.30
2022-08-15T07:20:43.989Z,957.34
2022-08-15T07:21:52.912Z,957.33
2022-08-15T07:22:46.820Z,957.31
2022-08-15T07:23:43.918Z,957.31
2022-08-15T07:24:43.897Z,957.29
2022-08-15T07:25:44.020Z,957.32
2022-08-15T07:26:43.753Z,957.31
2022-08-15T07:27:46.256Z,957.31
2022-08-15T07:28:45.462Z,957.31
2022-08-15T07:29:43.842Z,957.27
2022-08-15T07:30:43.899Z,957.27
2022-08-15T07:32:18.574Z,957.28
2022-08-15T07:32:43.718Z,957.20
2022-08-15T07:33:44.650Z,957.20
2022-08-15T07:34:43.440Z,957.19
2022-08-15T07:35:43.415Z,957.16
2022-08-15T07:36:43.474Z,957.16
2022-08-15T07:37:43.415Z,957.14
2022-08-15T07:38:43.589Z,957.14
2022-08-15T07:39:49.328Z,957.12
2022-08-15T07:40:43.330Z,957.15
2022-08-15T07:41:43.522Z,957.12
2022-08-15T07:43:00.428Z,957.11
2022-08-15T07:43:43.194Z,957.14
2022-08-15T07:44:43.148Z,957.12
2022-08-15T07:45:43.015Z,957.14
2022-08-15T07:46:55.855Z,957.14
2022-08-15T07:47:42.930Z,957.17
2022-08-15T07:48:46.652Z,957.15
2022-08-15T07:49:42.863Z,957.11
2022-08-15T07:50:43.368Z,957.10
2022-08-15T07:51:46.696Z,957.08
2022-08-15T07:52:44.126Z,957.06
2022-08-15T07:53:42.903Z,957.05
2022-08-15T07:54:50.961Z,957.08
2022-08-15T07:56:47.265Z,957.08
2022-08-15T07:57:57.671Z,957.09
2022-08-15T07:58:42.504Z,957.12
2022-08-15T08:00:46.021Z,957.11
2022-08-15T08:01:42.551Z,957.13
2022-08-15T08:02:43.757Z,957.14
2022-08-15T08:04:42.266Z,957.17
2022-08-15T08:05:47.720Z,957.23
2022-08-15T08:06:51.179Z,957.20
2022-08-15T08:07:43.430Z,957.19
2022-08-15T08:08:45.002Z,957.18
2022-08-15T08:09:42.072Z,957.20
2022-08-15T08:10:42.295Z,957.21
2022-08-15T08:11:46.631Z,957.21
2022-08-15T08:12:56.146Z,957.23
2022-08-15T08:13:43.645Z,957.17
2022-08-15T08:14:41.880Z,957.17
2022-08-15T08:15:42.968Z,957.15
2022-08-15T08:16:44.030Z,957.14
2022-08-15T08:17:45.201Z,957.17
2022-08-15T08:18:41.855Z,957.11
2022-08-15T08:19:43.292Z,957.16
2022-08-15T08:20:41.660Z,957.14
2022-08-15T08:21:41.668Z,957.14
2022-08-15T08:22:44.048Z,957.14
2022-08-15T08:23:41.683Z,957.14
2022-08-15T08:24:41.497Z,957.08
2022-08-15T08:26:07.073Z,957.08
2022-08-15T08:26:41.419Z,957.09
2022-08-15T08:27:47.581Z,957.06
2022-08-15T08:28:41.562Z,957.05
2022-08-15T08:29:41.522Z,957.01
2022-08-15T08:30:43.999Z,956.98
2022-08-15T08:31:41.238Z,956.99
2022-08-15T08:32:46.269Z,956.95
2022-08-15T08:33:41.473Z,956.99
2022-08-15T08:34:49.965Z,956.97
2022-08-15T08:35:41.084Z,957.02
2022-08-15T08:36:41.042Z,957.01
2022-08-15T08:37:41.004Z,957.01
2022-08-15T08:39:04.741Z,956.99
2022-08-15T08:39:40.952Z,957.03
2022-08-15T08:40:40.993Z,957.03
2022-08-15T08:41:45.448Z,957.01
2022-08-15T08:42:52.466Z,957.03
2022-08-15T08:43:41.010Z,957.08
2022-08-15T08:44:40.746Z,957.13
2022-08-15T08:45:40.816Z,957.16
2022-08-15T08:46:40.669Z,957.16
2022-08-15T08:47:40.635Z,957.17
2022-08-15T08:48:40.656Z,957.18
2022-08-15T08:50:31.749Z,957.14
2022-08-15T08:50:44.975Z,957.18
2022-08-15T08:51:40.487Z,957.21
2022-08-15T08:52:40.470Z,957.25
2022-08-15T08:53:44.585Z,957.29
2022-08-15T08:55:01.172Z,957.28
2022-08-15T08:55:45.348Z,957.36
2022-08-15T08:56:40.307Z,957.30
2022-08-15T08:57:40.272Z,957.35
2022-08-15T08:58:44.662Z,957.33
2022-08-15T08:59:40.200Z,957.32
2022-08-15T09:00:40.173Z,957.36
2022-08-15T09:01:40.236Z,957.37
2022-08-15T09:02:51.736Z,957.37
2022-08-15T09:03:43.087Z,957.37
2022-08-15T09:04:40.033Z,957.42
2022-08-15T09:05:47.314Z,957.39
2022-08-15T09:06:39.957Z,957.39
2022-08-15T09:07:39.937Z,957.32
2022-08-15T09:08:39.915Z,957.16
2022-08-15T09:09:39.852Z,957.20
2022-08-15T09:10:39.820Z,957.39
2022-08-15T09:11:45.533Z,957.17
2022-08-15T09:12:39.818Z,957.21
2022-08-15T09:13:39.714Z,957.19
2022-08-15T09:14:56.950Z,957.39
2022-08-15T09:15:46.998Z,957.42
2022-08-15T09:16:39.615Z,957.16
2022-08-15T09:17:57.926Z,957.38
2022-08-15T09:18:48.949Z,957.22
2022-08-15T09:19:39.515Z,957.15
2022-08-15T09:20:39.482Z,957.27
2022-08-15T09:21:39.457Z,957.38
2022-08-15T09:22:39.443Z,957.39
2022-08-15T09:23:39.637Z,957.40
2022-08-15T09:25:06.569Z,957.44
2022-08-15T09:25:39.323Z,957.38
2022-08-15T09:26:39.295Z,957.35
2022-08-15T09:27:54.478Z,957.36
2022-08-15T09:28:39.263Z,957.24
2022-08-15T09:29:57.070Z,957.29
2022-08-15T09:30:48.734Z,957.34
2022-08-15T09:31:40.860Z,957.22
2022-08-15T09:32:39.104Z,957.10
2022-08-15T09:33:39.534Z,957.25
2022-08-15T09:34:39.043Z,957.02
2022-08-15T09:35:41.546Z,957.01
2022-08-15T09:36:38.981Z,957.26
2022-08-15T09:37:38.988Z,957.17
2022-08-15T09:38:38.922Z,957.11
2022-08-15T09:39:39.116Z,957.24
2022-08-15T09:41:12.810Z,957.24
2022-08-15T09:41:38.834Z,957.27
2022-08-15T09:42:45.592Z,957.24
2022-08-15T09:43:38.788Z,957.20
2022-08-15T09:44:39.060Z,957.04
2022-08-15T09:45:45.511Z,956.98
2022-08-15T09:46:42.697Z,956.99
2022-08-15T09:47:50.108Z,956.91
2022-08-15T09:48:38.627Z,956.90
2022-08-15T09:49:38.622Z,957.08
2022-08-15T09:50:42.308Z,957.09
2022-08-15T09:51:38.535Z,957.17
2022-08-15T09:52:44.306Z,957.17
2022-08-15T09:53:53.162Z,957.23
2022-08-15T09:54:45.425Z,957.21
2022-08-15T09:55:38.431Z,957.15
2022-08-15T09:56:39.084Z,957.18
2022-08-15T09:57:50.945Z,957.18
2022-08-15T09:58:38.329Z,957.15
2022-08-15T09:59:44.683Z,957.14
2022-08-15T10:00:38.318Z,957.06
2022-08-15T10:01:38.744Z,957.10
2022-08-15T10:02:40.136Z,957.12
2022-08-15T10:03:38.188Z,957.01
2022-08-15T10:04:38.165Z,957.07
2022-08-15T10:05:38.551Z,957.04
2022-08-15T10:06:39.494Z,956.99
2022-08-15T10:07:45.514Z,957.01
2022-08-15T10:08:38.047Z,956.95
2022-08-15T10:09:38.024Z,956.97
2022-08-15T10:10:37.991Z,956.91
2022-08-15T10:11:37.983Z,956.94
2022-08-15T10:12:37.940Z,956.96
2022-08-15T10:13:37.912Z,956.96
2022-08-15T10:14:37.887Z,956.94
2022-08-15T10:15:40.849Z,956.92
2022-08-15T10:16:37.841Z,956.90
2022-08-15T10:17:37.817Z,956.93
2022-08-15T10:18:37.779Z,956.68
2022-08-15T10:19:43.642Z,956.68
2022-08-15T10:20:37.724Z,956.76
2022-08-15T10:21:37.700Z,956.86
2022-08-15T10:22:45.583Z,956.75
2022-08-15T10:23:37.644Z,956.78
2022-08-15T10:24:37.622Z,956.72
2022-08-15T10:25:37.592Z,956.74
2022-08-15T10:26:37.564Z,956.69
2022-08-15T10:27:37.540Z,956.70
2022-08-15T10:28:54.192Z,956.70
2022-08-15T10:29:37.488Z,956.71
2022-08-15T10:30:45.530Z,956.62
2022-08-15T10:31:55.465Z,956.67
2022-08-15T10:32:58.015Z,956.65
2022-08-15T10:33:37.949Z,956.62
2022-08-15T10:34:37.348Z,956.57
2022-08-15T10:35:37.326Z,956.52
2022-08-15T10:36:40.056Z,956.56
2022-08-15T10:37:44.161Z,956.50
2022-08-15T10:38:37.238Z,956.50
2022-08-15T10:39:37.355Z,956.52
2022-08-15T10:40:37.666Z,956.53
2022-08-15T10:41:37.150Z,956.51
2022-08-15T10:42:37.118Z,956.52
2022-08-15T10:43:53.842Z,956.53
2022-08-15T10:44:37.103Z,956.50
2022-08-15T10:45:38.306Z,956.45
2022-08-15T10:46:44.692Z,956.42
2022-08-15T10:47:37.257Z,956.39
2022-08-15T10:48:44.957Z,956.38
2022-08-15T10:49:36.925Z,956.39
2022-08-15T10:50:36.924Z,956.40
2022-08-15T10:51:42.981Z,956.44
2022-08-15T10:52:36.836Z,956.47
2022-08-15T10:53:50.541Z,956.41
2022-08-15T10:54:36.967Z,956.43
2022-08-15T10:55:56.923Z,956.41
2022-08-15T10:57:04.394Z,956.46
2022-08-15T10:57:36.701Z,956.51
2022-08-15T10:58:36.660Z,956.51
2022-08-15T10:59:42.210Z,956.53
2022-08-15T11:00:38.244Z,956.55
2022-08-15T11:01:40.287Z,956.45
2022-08-15T11:02:38.221Z,956.35
2022-08-15T11:04:48.451Z,956.29
2022-08-15T11:04:57.555Z,956.19
2022-08-15T11:05:36.465Z,956.40
2022-08-15T11:06:36.438Z,956.39
2022-08-15T11:07:36.501Z,956.49
2022-08-15T11:08:36.387Z,956.47
2022-08-15T11:09:39.031Z,956.46
2022-08-15T11:10:36.334Z,956.42
2022-08-15T11:11:36.303Z,956.33
2022-08-15T11:12:41.360Z,956.36
2022-08-15T11:13:36.246Z,956.37
2022-08-15T11:14:37.456Z,956.41
2022-08-15T11:15:36.214Z,956.38
2022-08-15T11:16:36.837Z,956.39
2022-08-15T11:17:45.567Z,956.39
2022-08-15T11:18:36.116Z,956.28
2022-08-15T11:20:07.265Z,956.25
2022-08-15T11:20:36.245Z,956.24
2022-08-15T11:21:41.387Z,956.19
2022-08-15T11:22:36.023Z,956.18
2022-08-15T11:23:35.992Z,955.94
2022-08-15T11:24:35.970Z,956.02
2022-08-15T11:25:35.943Z,955.95
2022-08-15T11:26:35.933Z,956.16
2022-08-15T11:27:35.896Z,956.20
2022-08-15T11:28:55.761Z,956.18
2022-08-15T11:29:35.847Z,956.12
2022-08-15T11:30:35.817Z,956.14
2022-08-15T11:31:37.509Z,956.14
2022-08-15T11:32:35.792Z,956.03
2022-08-15T11:33:38.019Z,956.08
2022-08-15T11:34:42.077Z,956.08
2022-08-15T11:35:37.860Z,956.05
2022-08-15T11:36:35.667Z,956.05
2022-08-15T11:37:36.787Z,956.10
2022-08-15T11:38:35.715Z,956.09
2022-08-15T11:39:35.648Z,956.07
2022-08-15T11:40:35.562Z,956.14
2022-08-15T11:41:35.553Z,956.11
2022-08-15T11:42:35.514Z,956.15
2022-08-15T11:43:35.492Z,956.18
2022-08-15T11:44:35.463Z,956.13
2022-08-15T11:45:50.509Z,956.17
2022-08-15T11:46:35.427Z,956.21
2022-08-15T11:47:35.388Z,956.18
2022-08-15T11:48:36.973Z,956.19
2022-08-15T11:49:35.391Z,956.22
2022-08-15T11:50:35.310Z,956.22
2022-08-15T11:51:35.303Z,956.10
2022-08-15T11:52:42.491Z,956.08
2022-08-15T11:53:35.235Z,956.21
2022-08-15T11:54:35.386Z,956.16
2022-08-15T11:55:35.185Z,956.08
2022-08-15T11:56:47.118Z,956.07
2022-08-15T11:58:35.105Z,956.06
2022-08-15T11:59:35.081Z,956.11
2022-08-15T12:00:35.054Z,956.13
2022-08-15T12:01:35.024Z,956.13
2022-08-15T12:02:35.075Z,956.19
2022-08-15T12:04:39.678Z,956.18
2022-08-15T12:04:40.389Z,956.19
2022-08-15T12:05:44.619Z,956.06
2022-08-15T12:06:50.048Z,956.14
2022-08-15T12:07:34.856Z,956.23
2022-08-15T12:08:34.825Z,956.23
2022-08-15T12:10:34.773Z,956.05
2022-08-15T12:12:34.715Z,955.97
2022-08-15T12:13:18.200Z,956.07
2022-08-15T12:13:18.781Z,956.05
2022-08-15T12:13:35.305Z,955.92
2022-08-15T12:14:34.678Z,955.96
2022-08-15T12:15:34.626Z,955.92
2022-08-15T12:16:34.900Z,955.86
2022-08-15T12:17:54.283Z,955.83
2022-08-15T12:18:49.482Z,955.87
2022-08-15T12:19:34.515Z,955.90
2022-08-15T12:20:34.747Z,955.89
2022-08-15T12:21:38.269Z,955.98
2022-08-15T12:22:44.724Z,956.00
2022-08-15T12:23:34.511Z,956.07
2022-08-15T12:24:34.347Z,956.05
2022-08-15T12:25:51.496Z,956.03
2022-08-15T12:26:39.339Z,956.07
2022-08-15T12:27:44.268Z,956.13
2022-08-15T12:28:46.402Z,956.12
2022-08-15T12:29:34.200Z,956.12
2022-08-15T12:30:34.158Z,956.18
2022-08-15T12:31:34.152Z,956.30
2022-08-15T12:32:36.056Z,956.35
2022-08-15T12:33:34.201Z,956.66
2022-08-15T12:34:38.199Z,956.61